»·PEaware :: N228Q KLWT-KMLS

N228Q :: KLWT-KMLS

FLIGHT INFORMATION

Flight Status: Arrived
Operator: Privately registered:
United States
More flights under this callsign
Pilot: Chuck O. (4337)
Aircraft: BEECH AIRCRAFT BONANZA
(BE35)
More flights by this aircraft type
Origin: KLWT Lewistown Mun
United States
Destination: KMLS Wiley
United States
More flights between these airports :: More routes between these airports
Route: CIWXU V120 MLS
File this flight plan on PilotEdge
Remarks:
Altitude:
(Current/Filed)
7,500ft
Speed:
(Current/Filed)
160kts
Departed: 05-Nov-20 05:27 PM
Arrived: 05-Nov-20 06:24 PM
Distance/Time
Traveled:
152nm/0:57
Distance/Time
To Go:
Arrived

Flight Plot

Page will automatically refresh every two minutes.

Flight plan parsing failed; only flown route is shown


Map Options




Map Legend


Flown Route
Filed Route
Departure Airport
Arrival Airport
Navaid (VOR, NDB)
Fix

Horizontal Profiles

Position Reports

Time Latitude Longitude Heading Altitude Ground
Speed
05-Nov-20 17:19 47.048771 -109.458962 326 4173ft 0kts
05-Nov-20 17:20 47.048775 -109.458966 326 4173ft 0kts
05-Nov-20 17:22 47.049297 -109.460089 0 4173ft 14kts
05-Nov-20 17:23 47.049402 -109.460091 357 4173ft 0kts
05-Nov-20 17:24 47.051376 -109.460167 337 4173ft 11kts
05-Nov-20 17:25 47.051651 -109.466660 271 4173ft 0kts
05-Nov-20 17:26 47.051651 -109.466668 271 4173ft 0kts
05-Nov-20 17:27 47.045289 -109.475078 219 4174ft 89kts
05-Nov-20 17:28 47.023570 -109.476654 98 5039ft 127kts
05-Nov-20 17:29 47.029913 -109.425837 78 5999ft 132kts
05-Nov-20 17:30 47.024842 -109.372552 114 6854ft 135kts
05-Nov-20 17:31 47.011634 -109.320626 117 7631ft 134kts
05-Nov-20 17:32 46.998337 -109.269221 118 8352ft 135kts
05-Nov-20 17:33 46.987697 -109.216032 111 9027ft 137kts
05-Nov-20 17:34 46.978154 -109.160152 111 9378ft 162kts
05-Nov-20 17:35 46.965761 -109.087480 109 9014ft 194kts
05-Nov-20 17:36 46.953665 -109.016378 110 9504ft 170kts
05-Nov-20 17:37 46.941449 -108.945442 110 9508ft 186kts
05-Nov-20 17:37 46.930769 -108.883442 110 9510ft 189kts
05-Nov-20 17:39 46.915609 -108.795810 110 9506ft 190kts
05-Nov-20 17:39 46.904720 -108.733144 110 9512ft 190kts
05-Nov-20 17:40 46.891669 -108.658348 110 9509ft 190kts
05-Nov-20 17:42 46.876363 -108.571018 110 9507ft 190kts
05-Nov-20 17:42 46.865374 -108.508583 110 9505ft 190kts
05-Nov-20 17:44 46.849946 -108.421289 110 9504ft 190kts
05-Nov-20 17:44 46.841521 -108.356853 97 9359ft 198kts
05-Nov-20 17:45 46.834526 -108.278669 102 9295ft 195kts
05-Nov-20 17:46 46.830730 -108.199685 90 9217ft 195kts
05-Nov-20 17:47 46.806753 -108.140091 131 9544ft 171kts
05-Nov-20 17:48 46.788503 -108.075428 112 9886ft 168kts
05-Nov-20 17:49 46.776832 -108.012511 112 10492ft 155kts
05-Nov-20 17:50 46.765783 -107.952063 112 10995ft 154kts
05-Nov-20 17:51 46.754684 -107.891226 112 11450ft 156kts
05-Nov-20 17:52 46.742445 -107.824678 111 11484ft 180kts
05-Nov-20 17:53 46.729179 -107.752329 110 11478ft 187kts
05-Nov-20 17:54 46.715575 -107.678404 110 11477ft 189kts
05-Nov-20 17:55 46.701887 -107.604373 111 11478ft 189kts
05-Nov-20 17:56 46.688079 -107.530015 111 11469ft 189kts
05-Nov-20 17:57 46.674267 -107.455924 111 11463ft 189kts
05-Nov-20 17:58 46.660387 -107.381781 111 11475ft 189kts
05-Nov-20 17:59 46.646518 -107.307974 111 11473ft 189kts
05-Nov-20 18:00 46.632530 -107.233830 111 11462ft 190kts
05-Nov-20 18:01 46.625035 -107.155665 94 11157ft 207kts
05-Nov-20 18:02 46.622892 -107.068927 95 10159ft 221kts
05-Nov-20 18:03 46.619966 -106.979932 95 9025ft 217kts
05-Nov-20 18:04 46.616917 -106.893230 95 7904ft 211kts
05-Nov-20 18:05 46.613885 -106.809574 95 6808ft 202kts
05-Nov-20 18:06 46.610906 -106.729222 95 5642ft 193kts
05-Nov-20 18:07 46.607937 -106.650548 94 4400ft 199kts
05-Nov-20 18:08 46.589061 -106.581405 120 3499ft 178kts
05-Nov-20 18:09 46.583950 -106.518673 88 3978ft 151kts
05-Nov-20 18:10 46.581736 -106.459597 92 4363ft 162kts
05-Nov-20 18:11 46.576820 -106.393405 89 4382ft 170kts
05-Nov-20 18:12 46.580085 -106.324630 86 4232ft 176kts
05-Nov-20 18:13 46.583411 -106.252566 85 3751ft 177kts
05-Nov-20 18:14 46.586522 -106.185009 85 3708ft 161kts
05-Nov-20 18:15 46.587940 -106.120423 107 3717ft 159kts
05-Nov-20 18:16 46.563858 -106.066307 122 3709ft 158kts
05-Nov-20 18:17 46.540851 -106.012039 119 3720ft 155kts
05-Nov-20 18:18 46.518997 -105.959262 122 3717ft 150kts
05-Nov-20 18:19 46.497758 -105.907879 122 3716ft 139kts
05-Nov-20 18:20 46.478648 -105.861677 122 3716ft 129kts
05-Nov-20 18:21 46.453786 -105.839612 184 3581ft 113kts
05-Nov-20 18:22 46.436418 -105.869492 228 2842ft 95kts
05-Nov-20 18:23 46.428663 -105.883670 70 2633ft 6kts
05-Nov-20 18:24 46.428759 -105.880833 91 2633ft 13kts
05-Nov-20 18:25 46.428742 -105.876048 112 2633ft 5kts
05-Nov-20 18:26 46.426731 -105.875833 167 2633ft 7kts
05-Nov-20 18:27 46.426800 -105.875568 358 2633ft 0kts
05-Nov-20 18:28 46.426800 -105.875568 358 2633ft 0kts
05-Nov-20 18:29 46.426800 -105.875568 358 2633ft 0kts
05-Nov-20 18:30 46.426800 -105.875568 358 2633ft 0kts
05-Nov-20 18:31 46.426800 -105.875568 358 2633ft 0kts
05-Nov-20 18:32 46.426800 -105.875568 358 2633ft 0kts
05-Nov-20 18:33 46.426800 -105.875568 358 2633ft 0kts
05-Nov-20 18:34 46.426800 -105.875568 358 2633ft 0kts
05-Nov-20 18:35 46.426800 -105.875568 358 2633ft 0kts
05-Nov-20 18:36 46.426800 -105.875568 358 2633ft 0kts
05-Nov-20 18:37 46.426800 -105.875568 358 2633ft 0kts
05-Nov-20 18:38 46.426800 -105.875568 358 2633ft 0kts

Navigation Log

Ident Type
Flight plan parsing failed, navigation log unavailable